sensor_id;sensor_type;location;lat;lon;timestamp;pressure;altitude;pressure_sealevel;temperature;humidity
62510;BME280;48558;48.242;11.654;2023-09-08T00:01:41;96550.03;;;12.95;100.00
62510;BME280;48558;48.242;11.654;2023-09-08T00:05:54;96547.63;;;12.88;100.00
62510;BME280;48558;48.242;11.654;2023-09-08T00:10:06;96554.59;;;13.08;100.00
62510;BME280;48558;48.242;11.654;2023-09-08T00:14:19;96549.91;;;12.90;100.00
62510;BME280;48558;48.242;11.654;2023-09-08T00:18:32;96549.97;;;12.81;100.00
62510;BME280;48558;48.242;11.654;2023-09-08T00:22:46;96555.06;;;12.73;100.00
62510;BME280;48558;48.242;11.654;2023-09-08T00:26:59;96551.75;;;12.60;100.00
62510;BME280;48558;48.242;11.654;2023-09-08T00:31:11;96546.25;;;12.51;100.00
62510;BME280;48558;48.242;11.654;2023-09-08T00:35:25;96545.81;;;12.53;100.00
62510;BME280;48558;48.242;11.654;2023-09-08T00:39:38;96545.50;;;12.51;100.00
62510;BME280;48558;48.242;11.654;2023-09-08T00:43:54;96538.75;;;12.43;100.00
62510;BME280;48558;48.242;11.654;2023-09-08T00:48:07;96542.09;;;12.56;100.00
62510;BME280;48558;48.242;11.654;2023-09-08T00:52:20;96540.75;;;12.42;100.00
62510;BME280;48558;48.242;11.654;2023-09-08T00:56:32;96552.03;;;12.39;100.00
62510;BME280;48558;48.242;11.654;2023-09-08T01:00:46;96547.34;;;12.54;100.00
62510;BME280;48558;48.242;11.654;2023-09-08T01:04:59;96554.03;;;12.38;100.00
62510;BME280;48558;48.242;11.654;2023-09-08T01:09:14;96550.66;;;12.34;100.00
62510;BME280;48558;48.242;11.654;2023-09-08T01:13:27;96548.75;;;12.49;100.00
62510;BME280;48558;48.242;11.654;2023-09-08T01:17:40;96546.53;;;12.30;100.00
62510;BME280;48558;48.242;11.654;2023-09-08T01:26:56;96548.22;;;12.27;100.00
62510;BME280;48558;48.242;11.654;2023-09-08T01:31:09;96552.56;;;12.19;100.00
62510;BME280;48558;48.242;11.654;2023-09-08T01:35:22;96548.00;;;12.07;100.00
62510;BME280;48558;48.242;11.654;2023-09-08T01:39:35;96540.00;;;12.00;100.00
62510;BME280;48558;48.242;11.654;2023-09-08T01:43:48;96545.41;;;11.94;100.00
62510;BME280;48558;48.242;11.654;2023-09-08T01:48:01;96544.03;;;11.90;100.00
62510;BME280;48558;48.242;11.654;2023-09-08T01:52:13;96540.06;;;11.82;100.00
62510;BME280;48558;48.242;11.654;2023-09-08T01:56:26;96531.88;;;11.87;100.00
62510;BME280;48558;48.242;11.654;2023-09-08T02:00:38;96535.59;;;11.84;100.00
62510;BME280;48558;48.242;11.654;2023-09-08T02:04:51;96534.19;;;11.89;100.00
62510;BME280;48558;48.242;11.654;2023-09-08T02:09:04;96528.97;;;11.91;100.00
62510;BME280;48558;48.242;11.654;2023-09-08T02:13:17;96520.06;;;11.87;100.00
62510;BME280;48558;48.242;11.654;2023-09-08T02:17:29;96525.91;;;11.80;100.00
62510;BME280;48558;48.242;11.654;2023-09-08T02:21:42;96526.84;;;11.77;100.00
62510;BME280;48558;48.242;11.654;2023-09-08T02:25:55;96531.78;;;11.73;100.00
62510;BME280;48558;48.242;11.654;2023-09-08T02:30:07;96526.84;;;11.68;100.00
62510;BME280;48558;48.242;11.654;2023-09-08T02:34:20;96528.69;;;11.62;100.00
62510;BME280;48558;48.242;11.654;2023-09-08T02:38:33;96521.91;;;11.81;100.00
62510;BME280;48558;48.242;11.654;2023-09-08T02:42:46;96530.22;;;11.72;100.00
62510;BME280;48558;48.242;11.654;2023-09-08T02:46:59;96530.84;;;11.67;100.00
62510;BME280;48558;48.242;11.654;2023-09-08T02:51:11;96526.53;;;11.66;100.00
62510;BME280;48558;48.242;11.654;2023-09-08T02:55:24;96523.78;;;11.47;100.00
62510;BME280;48558;48.242;11.654;2023-09-08T02:59:37;96522.56;;;11.39;100.00
62510;BME280;48558;48.242;11.654;2023-09-08T03:03:49;96528.09;;;11.39;100.00
62510;BME280;48558;48.242;11.654;2023-09-08T03:08:02;96527.47;;;11.35;100.00
62510;BME280;48558;48.242;11.654;2023-09-08T03:12:16;96531.19;;;11.32;100.00
62510;BME280;48558;48.242;11.654;2023-09-08T03:16:28;96533.00;;;11.17;100.00
62510;BME280;48558;48.242;11.654;2023-09-08T03:20:42;96519.19;;;11.17;100.00
62510;BME280;48558;48.242;11.654;2023-09-08T03:24:55;96514.28;;;11.30;100.00
62510;BME280;48558;48.242;11.654;2023-09-08T03:29:08;96526.88;;;11.31;100.00
62510;BME280;48558;48.242;11.654;2023-09-08T03:33:20;96524.25;;;11.28;100.00
62510;BME280;48558;48.242;11.654;2023-09-08T03:37:36;96529.31;;;11.20;100.00
62510;BME280;48558;48.242;11.654;2023-09-08T03:41:49;96531.03;;;11.18;100.00
62510;BME280;48558;48.242;11.654;2023-09-08T03:46:01;96535.34;;;11.19;100.00
62510;BME280;48558;48.242;11.654;2023-09-08T03:50:14;96536.09;;;11.10;100.00
62510;BME280;48558;48.242;11.654;2023-09-08T03:54:26;96528.25;;;11.09;100.00
62510;BME280;48558;48.242;11.654;2023-09-08T03:58:40;96540.69;;;11.04;100.00
62510;BME280;48558;48.242;11.654;2023-09-08T04:02:52;96525.94;;;10.98;100.00
62510;BME280;48558;48.242;11.654;2023-09-08T04:07:05;96532.38;;;10.95;100.00
62510;BME280;48558;48.242;11.654;2023-09-08T04:11:17;96534.84;;;10.93;100.00
62510;BME280;48558;48.242;11.654;2023-09-08T04:15:30;96532.56;;;10.92;100.00
62510;BME280;48558;48.242;11.654;2023-09-08T04:19:42;96534.53;;;10.91;100.00
62510;BME280;48558;48.242;11.654;2023-09-08T04:23:55;96540.84;;;10.92;100.00
62510;BME280;48558;48.242;11.654;2023-09-08T04:28:07;96532.09;;;10.93;100.00
62510;BME280;48558;48.242;11.654;2023-09-08T04:32:20;96524.88;;;10.96;100.00
62510;BME280;48558;48.242;11.654;2023-09-08T04:36:33;96529.19;;;10.97;100.00
62510;BME280;48558;48.242;11.654;2023-09-08T04:40:45;96532.41;;;11.04;100.00
62510;BME280;48558;48.242;11.654;2023-09-08T04:44:58;96530.88;;;11.03;100.00
62510;BME280;48558;48.242;11.654;2023-09-08T04:49:12;96540.06;;;11.00;100.00
62510;BME280;48558;48.242;11.654;2023-09-08T04:53:24;96535.63;;;11.21;100.00
62510;BME280;48558;48.242;11.654;2023-09-08T04:57:37;96540.09;;;11.27;100.00
62510;BME280;48558;48.242;11.654;2023-09-08T05:01:50;96542.38;;;11.29;100.00
62510;BME280;48558;48.242;11.654;2023-09-08T05:06:02;96541.94;;;11.39;100.00
62510;BME280;48558;48.242;11.654;2023-09-08T05:10:15;96541.31;;;11.35;100.00
62510;BME280;48558;48.242;11.654;2023-09-08T05:14:27;96547.78;;;11.41;100.00
62510;BME280;48558;48.242;11.654;2023-09-08T05:18:40;96537.63;;;11.38;100.00
62510;BME280;48558;48.242;11.654;2023-09-08T05:22:53;96544.22;;;11.50;100.00
62510;BME280;48558;48.242;11.654;2023-09-08T05:27:06;96538.53;;;11.53;100.00
62510;BME280;48558;48.242;11.654;2023-09-08T05:31:18;96561.31;;;11.76;100.00
62510;BME280;48558;48.242;11.654;2023-09-08T05:35:31;96558.81;;;11.87;100.00
62510;BME280;48558;48.242;11.654;2023-09-08T05:39:43;96557.84;;;11.99;100.00
62510;BME280;48558;48.242;11.654;2023-09-08T05:43:56;96568.13;;;12.16;100.00
62510;BME280;48558;48.242;11.654;2023-09-08T05:48:09;96563.94;;;12.30;100.00
62510;BME280;48558;48.242;11.654;2023-09-08T05:52:23;96573.06;;;12.54;100.00
62510;BME280;48558;48.242;11.654;2023-09-08T05:56:37;96555.31;;;12.61;100.00
62510;BME280;48558;48.242;11.654;2023-09-08T06:00:54;96567.81;;;12.89;100.00
62510;BME280;48558;48.242;11.654;2023-09-08T06:05:06;96574.78;;;13.08;100.00
62510;BME280;48558;48.242;11.654;2023-09-08T06:09:19;96580.22;;;13.26;100.00
62510;BME280;48558;48.242;11.654;2023-09-08T06:13:31;96578.66;;;13.49;100.00
62510;BME280;48558;48.242;11.654;2023-09-08T06:17:44;96582.91;;;13.74;100.00
62510;BME280;48558;48.242;11.654;2023-09-08T06:21:58;96578.72;;;14.07;100.00
62510;BME280;48558;48.242;11.654;2023-09-08T06:26:12;96574.88;;;14.19;100.00
62510;BME280;48558;48.242;11.654;2023-09-08T06:30:24;96569.28;;;14.63;100.00
62510;BME280;48558;48.242;11.654;2023-09-08T06:34:37;96576.94;;;14.68;100.00
62510;BME280;48558;48.242;11.654;2023-09-08T06:38:50;96584.25;;;15.00;100.00
62510;BME280;48558;48.242;11.654;2023-09-08T06:43:03;96580.69;;;15.00;100.00
62510;BME280;48558;48.242;11.654;2023-09-08T06:47:16;96578.56;;;15.30;100.00
62510;BME280;48558;48.242;11.654;2023-09-08T06:51:29;96582.00;;;15.59;100.00
62510;BME280;48558;48.242;11.654;2023-09-08T06:55:41;96577.94;;;15.81;100.00
62510;BME280;48558;48.242;11.654;2023-09-08T06:59:56;96582.25;;;15.82;100.00
62510;BME280;48558;48.242;11.654;2023-09-08T07:04:08;96575.53;;;15.94;100.00
62510;BME280;48558;48.242;11.654;2023-09-08T07:08:21;96581.06;;;16.14;100.00
62510;BME280;48558;48.242;11.654;2023-09-08T07:12:34;96573.41;;;16.40;100.00
62510;BME280;48558;48.242;11.654;2023-09-08T07:16:47;96576.63;;;16.59;100.00
62510;BME280;48558;48.242;11.654;2023-09-08T07:20:59;96577.03;;;16.77;100.00
62510;BME280;48558;48.242;11.654;2023-09-08T07:25:12;96577.91;;;16.94;100.00
62510;BME280;48558;48.242;11.654;2023-09-08T07:29:24;96574.50;;;17.21;100.00
62510;BME280;48558;48.242;11.654;2023-09-08T07:33:38;96574.31;;;17.36;100.00
62510;BME280;48558;48.242;11.654;2023-09-08T07:37:50;96565.31;;;17.69;100.00
62510;BME280;48558;48.242;11.654;2023-09-08T07:42:03;96564.88;;;17.81;100.00
62510;BME280;48558;48.242;11.654;2023-09-08T07:46:16;96567.19;;;18.05;100.00
62510;BME280;48558;48.242;11.654;2023-09-08T07:50:28;96567.44;;;18.07;100.00
62510;BME280;48558;48.242;11.654;2023-09-08T07:54:41;96570.28;;;18.24;100.00
62510;BME280;48558;48.242;11.654;2023-09-08T07:58:54;96572.63;;;18.47;100.00
62510;BME280;48558;48.242;11.654;2023-09-08T08:03:06;96562.66;;;18.69;100.00
62510;BME280;48558;48.242;11.654;2023-09-08T08:07:19;96571.03;;;19.02;100.00
62510;BME280;48558;48.242;11.654;2023-09-08T08:11:32;96571.53;;;19.06;100.00
62510;BME280;48558;48.242;11.654;2023-09-08T08:15:45;96568.63;;;19.50;100.00
62510;BME280;48558;48.242;11.654;2023-09-08T08:20:01;96566.34;;;19.43;100.00
62510;BME280;48558;48.242;11.654;2023-09-08T08:24:19;96569.53;;;19.75;97.87
62510;BME280;48558;48.242;11.654;2023-09-08T08:28:31;96566.34;;;19.95;99.24
62510;BME280;48558;48.242;11.654;2023-09-08T08:32:44;96569.78;;;20.23;94.16
62510;BME280;48558;48.242;11.654;2023-09-08T08:36:57;96559.41;;;20.48;94.46
62510;BME280;48558;48.242;11.654;2023-09-08T08:41:10;96575.09;;;21.46;85.09
62510;BME280;48558;48.242;11.654;2023-09-08T08:45:24;96564.66;;;22.21;80.27
62510;BME280;48558;48.242;11.654;2023-09-08T08:49:38;96569.00;;;22.53;75.65
62510;BME280;48558;48.242;11.654;2023-09-08T08:53:55;96561.78;;;23.03;71.26
62510;BME280;48558;48.242;11.654;2023-09-08T08:58:08;96564.56;;;23.47;71.67
62510;BME280;48558;48.242;11.654;2023-09-08T09:02:21;96560.50;;;24.63;69.12
62510;BME280;48558;48.242;11.654;2023-09-08T09:06:34;96559.41;;;25.07;65.60
62510;BME280;48558;48.242;11.654;2023-09-08T09:10:48;96557.09;;;24.98;65.22
62510;BME280;48558;48.242;11.654;2023-09-08T09:15:02;96547.81;;;24.36;66.03
62510;BME280;48558;48.242;11.654;2023-09-08T09:19:21;96546.41;;;25.32;62.04
62510;BME280;48558;48.242;11.654;2023-09-08T09:23:39;96545.03;;;25.26;60.60
62510;BME280;48558;48.242;11.654;2023-09-08T09:27:53;96541.44;;;25.53;61.20
62510;BME280;48558;48.242;11.654;2023-09-08T09:32:06;96546.75;;;25.93;58.77
62510;BME280;48558;48.242;11.654;2023-09-08T09:36:22;96541.75;;;26.21;60.28
62510;BME280;48558;48.242;11.654;2023-09-08T09:40:34;96544.66;;;26.44;57.83
62510;BME280;48558;48.242;11.654;2023-09-08T09:44:48;96541.75;;;26.21;60.67
62510;BME280;48558;48.242;11.654;2023-09-08T09:49:01;96530.56;;;27.12;59.01
62510;BME280;48558;48.242;11.654;2023-09-08T09:53:19;96531.28;;;27.58;57.65
62510;BME280;48558;48.242;11.654;2023-09-08T09:57:32;96524.03;;;27.72;56.90
62510;BME280;48558;48.242;11.654;2023-09-08T10:01:45;96519.59;;;28.01;56.20
62510;BME280;48558;48.242;11.654;2023-09-08T10:05:59;96529.59;;;28.10;54.39
62510;BME280;48558;48.242;11.654;2023-09-08T10:10:11;96515.81;;;26.98;57.36
62510;BME280;48558;48.242;11.654;2023-09-08T10:14:26;96518.25;;;27.40;57.78
62510;BME280;48558;48.242;11.654;2023-09-08T10:18:44;96520.78;;;27.83;56.23
62510;BME280;48558;48.242;11.654;2023-09-08T10:27:53;96516.75;;;29.15;54.47
62510;BME280;48558;48.242;11.654;2023-09-08T10:32:08;96514.63;;;29.40;50.72
62510;BME280;48558;48.242;11.654;2023-09-08T10:36:23;96508.31;;;28.58;50.73
62510;BME280;48558;48.242;11.654;2023-09-08T10:40:37;96502.19;;;28.29;51.60
62510;BME280;48558;48.242;11.654;2023-09-08T10:49:04;96503.38;;;28.83;51.63
62510;BME280;48558;48.242;11.654;2023-09-08T10:53:19;96504.59;;;28.40;51.78
62510;BME280;48558;48.242;11.654;2023-09-08T10:57:33;96504.06;;;28.34;52.26
62510;BME280;48558;48.242;11.654;2023-09-08T11:01:47;96503.75;;;29.29;53.48
62510;BME280;48558;48.242;11.654;2023-09-08T11:05:59;96503.16;;;30.43;50.60
62510;BME280;48558;48.242;11.654;2023-09-08T11:10:13;96496.38;;;30.65;45.91
62510;BME280;48558;48.242;11.654;2023-09-08T11:14:25;96502.66;;;29.00;48.59
62510;BME280;48558;48.242;11.654;2023-09-08T11:18:38;96499.44;;;28.79;50.67
62510;BME280;48558;48.242;11.654;2023-09-08T11:22:51;96503.75;;;29.63;49.87
62510;BME280;48558;48.242;11.654;2023-09-08T11:27:04;96496.72;;;29.47;50.42
62510;BME280;48558;48.242;11.654;2023-09-08T11:31:17;96508.63;;;29.70;49.34
62510;BME280;48558;48.242;11.654;2023-09-08T11:35:31;96502.84;;;30.39;47.24
62510;BME280;48558;48.242;11.654;2023-09-08T11:39:45;96498.22;;;30.00;47.95
62510;BME280;48558;48.242;11.654;2023-09-08T11:43:58;96503.88;;;30.34;53.66
62510;BME280;48558;48.242;11.654;2023-09-08T11:48:11;96499.69;;;31.82;47.15
62510;BME280;48558;48.242;11.654;2023-09-08T11:52:23;96498.81;;;30.78;46.78
62510;BME280;48558;48.242;11.654;2023-09-08T11:56:39;96491.03;;;31.25;46.03
62510;BME280;48558;48.242;11.654;2023-09-08T12:00:52;96489.88;;;31.85;43.50
62510;BME280;48558;48.242;11.654;2023-09-08T12:05:05;96483.13;;;31.52;46.72
62510;BME280;48558;48.242;11.654;2023-09-08T12:09:20;96490.72;;;32.45;44.69
62510;BME280;48558;48.242;11.654;2023-09-08T12:13:34;96477.19;;;31.21;45.23
62510;BME280;48558;48.242;11.654;2023-09-08T12:17:47;96480.22;;;30.77;46.56
62510;BME280;48558;48.242;11.654;2023-09-08T12:22:03;96477.75;;;30.11;50.27
62510;BME280;48558;48.242;11.654;2023-09-08T12:26:21;96471.06;;;31.34;48.84
62510;BME280;48558;48.242;11.654;2023-09-08T12:30:34;96464.13;;;32.23;44.00
62510;BME280;48558;48.242;11.654;2023-09-08T12:34:46;96467.63;;;31.74;44.98
62510;BME280;48558;48.242;11.654;2023-09-08T12:38:59;96466.22;;;31.17;46.29
62510;BME280;48558;48.242;11.654;2023-09-08T12:43:11;96472.88;;;31.87;45.47
62510;BME280;48558;48.242;11.654;2023-09-08T12:47:38;96468.97;;;31.92;44.29
62510;BME280;48558;48.242;11.654;2023-09-08T12:51:51;96458.72;;;31.22;45.99
62510;BME280;48558;48.242;11.654;2023-09-08T12:56:03;96455.72;;;31.30;45.18
62510;BME280;48558;48.242;11.654;2023-09-08T13:00:16;96448.97;;;31.44;48.15
62510;BME280;48558;48.242;11.654;2023-09-08T13:04:29;96460.44;;;30.89;46.56
62510;BME280;48558;48.242;11.654;2023-09-08T13:08:41;96454.22;;;30.83;43.74
62510;BME280;48558;48.242;11.654;2023-09-08T13:12:54;96454.25;;;31.86;46.67
62510;BME280;48558;48.242;11.654;2023-09-08T13:17:07;96450.22;;;32.39;42.79
62510;BME280;48558;48.242;11.654;2023-09-08T13:21:20;96447.22;;;32.37;43.92
62510;BME280;48558;48.242;11.654;2023-09-08T13:25:33;96436.19;;;31.74;44.66
62510;BME280;48558;48.242;11.654;2023-09-08T13:29:46;96441.75;;;32.10;44.27
62510;BME280;48558;48.242;11.654;2023-09-08T13:33:58;96435.88;;;32.08;46.43
62510;BME280;48558;48.242;11.654;2023-09-08T13:38:11;96440.81;;;32.98;43.64
62510;BME280;48558;48.242;11.654;2023-09-08T13:42:23;96422.47;;;32.61;42.54
62510;BME280;48558;48.242;11.654;2023-09-08T13:46:36;96428.63;;;33.18;41.32
62510;BME280;48558;48.242;11.654;2023-09-08T13:50:48;96425.31;;;33.22;43.58
62510;BME280;48558;48.242;11.654;2023-09-08T13:55:07;96424.53;;;32.70;44.04
62510;BME280;48558;48.242;11.654;2023-09-08T13:59:22;96422.88;;;32.26;44.53
62510;BME280;48558;48.242;11.654;2023-09-08T14:03:38;96419.16;;;33.37;45.42
62510;BME280;48558;48.242;11.654;2023-09-08T14:07:53;96405.78;;;33.09;42.46
62510;BME280;48558;48.242;11.654;2023-09-08T14:12:18;96413.34;;;31.74;44.81
62510;BME280;48558;48.242;11.654;2023-09-08T14:16:33;96406.91;;;31.54;45.40
62510;BME280;48558;48.242;11.654;2023-09-08T14:20:47;96402.66;;;31.74;44.75
62510;BME280;48558;48.242;11.654;2023-09-08T14:25:00;96396.81;;;31.63;44.70
62510;BME280;48558;48.242;11.654;2023-09-08T14:29:12;96404.63;;;31.53;44.99
62510;BME280;48558;48.242;11.654;2023-09-08T14:33:25;96393.19;;;31.34;45.02
62510;BME280;48558;48.242;11.654;2023-09-08T14:37:38;96398.31;;;31.45;45.67
62510;BME280;48558;48.242;11.654;2023-09-08T14:41:51;96395.63;;;32.25;45.14
62510;BME280;48558;48.242;11.654;2023-09-08T14:46:05;96390.13;;;32.08;44.67
62510;BME280;48558;48.242;11.654;2023-09-08T14:50:18;96388.03;;;31.80;45.04
62510;BME280;48558;48.242;11.654;2023-09-08T14:54:31;96391.09;;;31.63;45.99
62510;BME280;48558;48.242;11.654;2023-09-08T14:58:44;96393.34;;;31.74;45.36
62510;BME280;48558;48.242;11.654;2023-09-08T15:02:56;96389.84;;;31.75;46.42
62510;BME280;48558;48.242;11.654;2023-09-08T15:07:09;96392.00;;;30.26;48.08
62510;BME280;48558;48.242;11.654;2023-09-08T15:11:21;96404.09;;;29.46;50.60
62510;BME280;48558;48.242;11.654;2023-09-08T15:15:34;96407.75;;;29.73;51.04
62510;BME280;48558;48.242;11.654;2023-09-08T15:19:46;96404.75;;;29.54;51.60
62510;BME280;48558;48.242;11.654;2023-09-08T15:23:59;96396.91;;;29.28;52.36
62510;BME280;48558;48.242;11.654;2023-09-08T15:28:15;96392.00;;;29.04;52.83
62510;BME280;48558;48.242;11.654;2023-09-08T15:32:28;96388.78;;;28.66;54.17
62510;BME280;48558;48.242;11.654;2023-09-08T15:36:40;96389.22;;;28.37;54.64
62510;BME280;48558;48.242;11.654;2023-09-08T15:45:22;96388.44;;;27.80;57.08
62510;BME280;48558;48.242;11.654;2023-09-08T15:49:34;96386.16;;;27.39;56.79
62510;BME280;48558;48.242;11.654;2023-09-08T15:53:47;96396.59;;;27.29;57.64
62510;BME280;48558;48.242;11.654;2023-09-08T15:58:00;96386.22;;;27.16;58.45
62510;BME280;48558;48.242;11.654;2023-09-08T16:02:12;96383.06;;;26.97;59.95
62510;BME280;48558;48.242;11.654;2023-09-08T16:06:25;96376.09;;;26.83;59.50
62510;BME280;48558;48.242;11.654;2023-09-08T16:10:37;96378.00;;;26.65;60.82
62510;BME280;48558;48.242;11.654;2023-09-08T16:14:50;96374.63;;;26.44;61.48
62510;BME280;48558;48.242;11.654;2023-09-08T16:19:02;96373.09;;;26.13;61.87
62510;BME280;48558;48.242;11.654;2023-09-08T16:23:25;96377.03;;;26.02;63.83
62510;BME280;48558;48.242;11.654;2023-09-08T16:27:38;96371.00;;;25.91;62.39
62510;BME280;48558;48.242;11.654;2023-09-08T16:31:51;96381.31;;;25.66;64.71
62510;BME280;48558;48.242;11.654;2023-09-08T16:36:04;96385.41;;;25.49;64.51
62510;BME280;48558;48.242;11.654;2023-09-08T16:40:16;96388.84;;;25.20;66.49
62510;BME280;48558;48.242;11.654;2023-09-08T16:44:29;96382.56;;;25.06;68.11
62510;BME280;48558;48.242;11.654;2023-09-08T16:48:42;96386.47;;;24.96;68.58
62510;BME280;48558;48.242;11.654;2023-09-08T16:52:55;96374.94;;;24.65;70.59
62510;BME280;48558;48.242;11.654;2023-09-08T16:57:07;96375.72;;;24.38;72.76
62510;BME280;48558;48.242;11.654;2023-09-08T17:01:20;96384.72;;;24.36;73.01
62510;BME280;48558;48.242;11.654;2023-09-08T17:05:33;96382.16;;;24.17;74.95
62510;BME280;48558;48.242;11.654;2023-09-08T17:09:46;96395.72;;;23.85;75.86
62510;BME280;48558;48.242;11.654;2023-09-08T17:13:59;96389.50;;;23.66;78.74
62510;BME280;48558;48.242;11.654;2023-09-08T17:18:11;96390.63;;;23.50;81.51
62510;BME280;48558;48.242;11.654;2023-09-08T17:22:24;96391.47;;;22.98;84.99
62510;BME280;48558;48.242;11.654;2023-09-08T17:26:37;96397.78;;;22.78;88.42
62510;BME280;48558;48.242;11.654;2023-09-08T17:30:49;96389.19;;;22.44;92.79
62510;BME280;48558;48.242;11.654;2023-09-08T17:35:02;96389.47;;;22.28;99.81
62510;BME280;48558;48.242;11.654;2023-09-08T17:39:15;96411.41;;;21.53;100.00
62510;BME280;48558;48.242;11.654;2023-09-08T17:43:27;96412.75;;;21.09;100.00
62510;BME280;48558;48.242;11.654;2023-09-08T17:47:40;96408.16;;;21.06;100.00
62510;BME280;48558;48.242;11.654;2023-09-08T17:51:52;96423.28;;;20.79;100.00
62510;BME280;48558;48.242;11.654;2023-09-08T17:56:05;96436.75;;;20.61;100.00
62510;BME280;48558;48.242;11.654;2023-09-08T18:00:18;96428.22;;;20.48;100.00
62510;BME280;48558;48.242;11.654;2023-09-08T18:04:34;96432.38;;;20.66;100.00
62510;BME280;48558;48.242;11.654;2023-09-08T18:08:47;96427.16;;;20.76;100.00
62510;BME280;48558;48.242;11.654;2023-09-08T18:13:03;96426.41;;;20.51;100.00
62510;BME280;48558;48.242;11.654;2023-09-08T18:17:16;96436.69;;;20.43;100.00
62510;BME280;48558;48.242;11.654;2023-09-08T18:21:28;96431.72;;;20.30;100.00
62510;BME280;48558;48.242;11.654;2023-09-08T18:25:42;96428.59;;;20.04;100.00
62510;BME280;48558;48.242;11.654;2023-09-08T18:29:54;96430.25;;;19.88;100.00
62510;BME280;48558;48.242;11.654;2023-09-08T18:34:07;96434.25;;;19.98;100.00
62510;BME280;48558;48.242;11.654;2023-09-08T18:38:20;96431.56;;;19.82;100.00
62510;BME280;48558;48.242;11.654;2023-09-08T18:42:33;96432.59;;;19.79;100.00
62510;BME280;48558;48.242;11.654;2023-09-08T18:46:46;96428.41;;;19.61;100.00
62510;BME280;48558;48.242;11.654;2023-09-08T18:50:58;96431.84;;;19.78;100.00
62510;BME280;48558;48.242;11.654;2023-09-08T18:55:11;96439.38;;;19.59;100.00
62510;BME280;48558;48.242;11.654;2023-09-08T18:59:23;96446.88;;;19.40;100.00
62510;BME280;48558;48.242;11.654;2023-09-08T19:03:36;96439.25;;;19.35;100.00
62510;BME280;48558;48.242;11.654;2023-09-08T19:07:50;96434.16;;;19.33;100.00
62510;BME280;48558;48.242;11.654;2023-09-08T19:12:02;96441.03;;;19.32;100.00
62510;BME280;48558;48.242;11.654;2023-09-08T19:16:15;96440.63;;;19.12;100.00
62510;BME280;48558;48.242;11.654;2023-09-08T19:20:29;96450.38;;;18.89;100.00
62510;BME280;48558;48.242;11.654;2023-09-08T19:24:42;96447.66;;;18.72;100.00
62510;BME280;48558;48.242;11.654;2023-09-08T19:28:59;96460.63;;;18.70;100.00
62510;BME280;48558;48.242;11.654;2023-09-08T19:33:14;96463.22;;;18.56;100.00
62510;BME280;48558;48.242;11.654;2023-09-08T19:37:27;96461.66;;;18.44;100.00
62510;BME280;48558;48.242;11.654;2023-09-08T19:41:39;96454.56;;;18.38;100.00
62510;BME280;48558;48.242;11.654;2023-09-08T19:45:52;96449.47;;;18.25;100.00
62510;BME280;48558;48.242;11.654;2023-09-08T19:50:04;96454.06;;;18.17;100.00
62510;BME280;48558;48.242;11.654;2023-09-08T19:54:17;96451.78;;;18.05;100.00
62510;BME280;48558;48.242;11.654;2023-09-08T19:58:30;96462.72;;;17.97;100.00
62510;BME280;48558;48.242;11.654;2023-09-08T20:02:42;96450.50;;;17.89;100.00
62510;BME280;48558;48.242;11.654;2023-09-08T20:06:55;96460.66;;;17.81;100.00
62510;BME280;48558;48.242;11.654;2023-09-08T20:11:09;96459.91;;;17.75;100.00
62510;BME280;48558;48.242;11.654;2023-09-08T20:15:22;96454.31;;;17.64;100.00
62510;BME280;48558;48.242;11.654;2023-09-08T20:19:35;96458.81;;;17.50;100.00
62510;BME280;48558;48.242;11.654;2023-09-08T20:23:47;96466.16;;;17.37;100.00
62510;BME280;48558;48.242;11.654;2023-09-08T20:28:00;96464.59;;;17.25;100.00
62510;BME280;48558;48.242;11.654;2023-09-08T20:32:12;96456.94;;;17.14;100.00
62510;BME280;48558;48.242;11.654;2023-09-08T20:36:25;96453.59;;;17.04;100.00
62510;BME280;48558;48.242;11.654;2023-09-08T20:40:46;96464.50;;;17.02;100.00
62510;BME280;48558;48.242;11.654;2023-09-08T20:44:59;96468.53;;;16.96;100.00
62510;BME280;48558;48.242;11.654;2023-09-08T20:49:12;96466.19;;;16.83;100.00
62510;BME280;48558;48.242;11.654;2023-09-08T20:53:25;96469.97;;;16.80;100.00
62510;BME280;48558;48.242;11.654;2023-09-08T20:57:37;96473.03;;;16.82;100.00
62510;BME280;48558;48.242;11.654;2023-09-08T21:01:50;96469.44;;;16.76;100.00
62510;BME280;48558;48.242;11.654;2023-09-08T21:06:02;96458.69;;;16.58;100.00
62510;BME280;48558;48.242;11.654;2023-09-08T21:10:15;96462.41;;;16.44;100.00
62510;BME280;48558;48.242;11.654;2023-09-08T21:14:28;96484.41;;;16.42;100.00
62510;BME280;48558;48.242;11.654;2023-09-08T21:18:40;96481.63;;;16.36;100.00
62510;BME280;48558;48.242;11.654;2023-09-08T21:22:53;96490.69;;;16.31;100.00
62510;BME280;48558;48.242;11.654;2023-09-08T21:27:05;96483.81;;;16.27;100.00
62510;BME280;48558;48.242;11.654;2023-09-08T21:31:18;96486.56;;;16.21;100.00
62510;BME280;48558;48.242;11.654;2023-09-08T21:35:30;96481.16;;;16.43;100.00
62510;BME280;48558;48.242;11.654;2023-09-08T21:39:43;96483.94;;;16.43;100.00
62510;BME280;48558;48.242;11.654;2023-09-08T21:43:56;96476.88;;;16.48;100.00
62510;BME280;48558;48.242;11.654;2023-09-08T21:48:09;96472.81;;;16.49;100.00
62510;BME280;48558;48.242;11.654;2023-09-08T21:52:23;96479.47;;;16.20;100.00
62510;BME280;48558;48.242;11.654;2023-09-08T21:56:49;96468.09;;;15.93;100.00
62510;BME280;48558;48.242;11.654;2023-09-08T22:01:01;96475.38;;;15.85;100.00
62510;BME280;48558;48.242;11.654;2023-09-08T22:05:14;96474.28;;;15.76;100.00
62510;BME280;48558;48.242;11.654;2023-09-08T22:09:27;96467.28;;;15.87;100.00